The Farmers Guide 72-hour weather forecast

Enter Postcode:

Scattered Showers

(00:00)

11.5°C

IP2 0SS

Wind Soil
Date Time Weather Temp Rain Humid Cloud Press (mph) Temp Moist
25/10 00:00 11.5°C 0.6mm 96% 21% 1015mb 7w (277 degrees) 13.6°C 0.3%
03:00 10.0°C 0.0mm 96% 5% 1015mb 7w (264 degrees) 13.6°C 0.3%
06:00 8.9°C 0.0mm 95% 5% 1016mb 7sww (255 degrees) 13.6°C 0.3%
09:00 10.4°C 0.0mm 84% 1% 1018mb 8sww (249 degrees) 13.6°C 0.3%
12:00 13.3°C 0.0mm 73% 4% 1018mb 10sww (244 degrees) 13.5°C 0.3%
15:00 13.9°C 0.0mm 71% 4% 1018mb 9sww (238 degrees) 13.5°C 0.3%
18:00 11.8°C 0.0mm 82% 7% 1019mb 9sw (221 degrees) 13.5°C 0.3%
21:00 11.0°C 0.0mm 87% 28% 1020mb 10sw (225 degrees) 13.5°C 0.3%
26/10 00:00 10.5°C 0.0mm 92% 35% 1020mb 10sw (223 degrees) 13.5°C 0.3%
03:00 10.4°C 0.0mm 93% 68% 1019mb 11sw (223 degrees) 13.5°C 0.3%
06:00 10.9°C 0.0mm 92% 83% 1020mb 11sw (222 degrees) 13.5°C 0.3%
09:00 12.9°C 0.0mm 84% 89% 1021mb 12sw (220 degrees) 13.5°C 0.3%
12:00 14.5°C 0.0mm 73% 93% 1020mb 14sw (222 degrees) 13.5°C 0.3%
15:00 14.2°C 0.0mm 73% 100% 1020mb 12sw (227 degrees) 13.5°C 0.3%
18:00 13.3°C 0.0mm 71% 100% 1021mb 11sw (225 degrees) 13.4°C 0.3%
21:00 11.9°C 0.0mm 79% 98% 1022mb 11sw (222 degrees) 13.4°C 0.3%
27/10 00:00 11.5°C 0.0mm 85% 96% 1022mb 11sw (215 degrees) 13.4°C 0.3%
03:00 11.7°C 0.0mm 92% 78% 1021mb 11sw (218 degrees) 13.4°C 0.3%
06:00 12.3°C 0.0mm 94% 83% 1021mb 11ssw (210 degrees) 13.4°C 0.3%
09:00 14.4°C 0.0mm 86% 75% 1021mb 12ssw (202 degrees) 13.4°C 0.3%
12:00 17.3°C 0.0mm 74% 58% 1020mb 13ssw (196 degrees) 13.4°C 0.3%
15:00 17.0°C 0.0mm 77% 17% 1019mb 12s (186 degrees) 13.4°C 0.3%
18:00 14.5°C 0.0mm 84% 9% 1018mb 12s (188 degrees) 13.4°C 0.3%
21:00 13.9°C 0.0mm 87% 0% 1017mb 11s (189 degrees) 13.4°C 0.3%
The Farmers Guide weather forecast is a free service for users of this website.
 
We now carry forecasts based on postcodes. Just enter your postcode and the weather page will display the forecast for the following 72 hours, broken down into three-hour intervals.
 
The forecast data provided for each three-hour period includes: a general graphic showing the likely weather conditions; average temperatures for the period; cloud cover; barometric pressure; wind speed and direction; humidity; and rainfall.
 
An indication of the likely soil temperature and soil moisture will also be displayed for most postcodes, although this data is not available for every area.
 
We hope you will find this service useful and would welcome any feedback from you.
 
 

Search

Read our full November issue here FREE!

Advertisments